createdAt,value
2018-08-09T00:00:21.401Z,15.70
2018-08-09T00:02:50.102Z,15.07
2018-08-09T00:05:18.821Z,13.90
2018-08-09T00:07:47.533Z,14.00
2018-08-09T00:10:16.305Z,13.60
2018-08-09T00:12:45.354Z,14.57
2018-08-09T00:15:14.235Z,14.73
2018-08-09T00:17:43.498Z,14.70
2018-08-09T00:20:12.566Z,16.43
2018-08-09T00:22:41.329Z,14.73
2018-08-09T00:25:10.062Z,13.97
2018-08-09T00:27:38.766Z,14.60
2018-08-09T00:30:07.933Z,16.30
2018-08-09T00:32:36.777Z,15.10
2018-08-09T00:35:05.620Z,15.10
2018-08-09T00:37:34.328Z,14.97
2018-08-09T00:40:03.125Z,15.30
2018-08-09T00:42:31.839Z,14.60
2018-08-09T00:45:00.556Z,15.17
2018-08-09T00:47:29.334Z,14.23
2018-08-09T00:49:58.060Z,15.43
2018-08-09T00:52:26.813Z,14.70
2018-08-09T00:54:55.531Z,17.70
2018-08-09T00:57:24.402Z,15.13
2018-08-09T00:59:53.174Z,16.40
2018-08-09T01:02:21.885Z,13.87
2018-08-09T01:04:50.585Z,14.90
2018-08-09T01:07:19.324Z,15.53
2018-08-09T01:09:48.034Z,16.07
2018-08-09T01:12:16.821Z,15.50
2018-08-09T01:14:45.532Z,18.90
2018-08-09T01:17:14.267Z,17.10
2018-08-09T01:19:43.004Z,17.70
2018-08-09T01:22:11.762Z,17.57
2018-08-09T01:24:40.534Z,16.07
2018-08-09T01:27:09.910Z,16.80
2018-08-09T01:29:40.005Z,14.70
2018-08-09T01:32:08.762Z,16.03
2018-08-09T01:34:37.480Z,15.47
2018-08-09T01:37:06.204Z,15.73
2018-08-09T01:39:34.894Z,15.40
2018-08-09T01:42:14.785Z,14.23
2018-08-09T01:44:43.619Z,14.67
2018-08-09T01:47:17.823Z,15.77
2018-08-09T01:49:46.547Z,16.13
2018-08-09T01:52:15.536Z,16.03
2018-08-09T01:54:44.257Z,15.30
2018-08-09T01:57:12.985Z,16.13
2018-08-09T01:59:41.722Z,15.00
2018-08-09T02:02:10.429Z,16.60
2018-08-09T02:04:39.219Z,15.23
2018-08-09T02:07:07.906Z,12.93
2018-08-09T02:09:36.604Z,13.90
2018-08-09T02:12:05.797Z,16.03
2018-08-09T02:14:34.553Z,15.83
2018-08-09T02:17:03.253Z,18.87
2018-08-09T02:19:31.974Z,18.13
2018-08-09T02:22:00.674Z,18.63
2018-08-09T02:24:29.404Z,21.40
2018-08-09T02:26:58.125Z,18.83
2018-08-09T02:29:26.859Z,21.73
2018-08-09T02:31:55.629Z,19.33
2018-08-09T02:34:24.368Z,21.33
2018-08-09T02:36:53.114Z,19.77
2018-08-09T02:39:21.903Z,19.23
2018-08-09T02:41:50.663Z,21.90
2018-08-09T02:44:19.415Z,16.37
2018-08-09T02:46:48.238Z,16.27
2018-08-09T02:49:16.946Z,18.50
2018-08-09T02:51:45.718Z,19.37
2018-08-09T02:54:14.576Z,18.00
2018-08-09T02:56:43.323Z,19.27
2018-08-09T02:59:12.099Z,17.60
2018-08-09T03:01:40.856Z,17.67
2018-08-09T03:04:09.605Z,16.23
2018-08-09T03:06:38.330Z,17.00
2018-08-09T03:09:10.157Z,18.10
2018-08-09T03:11:38.898Z,18.27
2018-08-09T03:14:07.665Z,16.87
2018-08-09T03:16:36.402Z,18.73
2018-08-09T03:19:05.113Z,17.83
2018-08-09T03:21:33.896Z,18.37
2018-08-09T03:24:02.665Z,17.93
2018-08-09T03:26:31.398Z,18.77
2018-08-09T03:29:00.118Z,19.97
2018-08-09T03:31:28.821Z,17.90
2018-08-09T03:33:57.568Z,17.40
2018-08-09T03:36:26.283Z,17.07
2018-08-09T03:38:55.013Z,16.23
2018-08-09T03:41:23.721Z,15.67
2018-08-09T03:43:52.476Z,16.60
2018-08-09T03:46:21.390Z,14.20
2018-08-09T03:48:50.193Z,19.40
2018-08-09T03:51:18.946Z,15.90
2018-08-09T03:53:47.683Z,18.33
2018-08-09T03:56:16.447Z,19.53
2018-08-09T03:58:45.222Z,17.50
2018-08-09T04:01:13.949Z,14.27
2018-08-09T04:03:42.657Z,14.70
2018-08-09T04:06:11.385Z,15.60
2018-08-09T04:08:40.143Z,14.00
2018-08-09T04:11:08.928Z,16.23
2018-08-09T04:13:37.699Z,13.33
2018-08-09T04:16:06.555Z,15.57
2018-08-09T04:18:35.266Z,12.70
2018-08-09T04:21:04.047Z,11.07
2018-08-09T04:23:32.750Z,9.93
2018-08-09T04:26:01.491Z,10.00
2018-08-09T04:28:30.222Z,9.70
2018-08-09T04:30:58.960Z,8.90
2018-08-09T04:33:27.704Z,8.40
2018-08-09T04:35:56.512Z,9.20
2018-08-09T04:38:25.388Z,12.27
2018-08-09T04:40:54.105Z,10.63
2018-08-09T04:43:22.902Z,8.43
2018-08-09T04:45:51.610Z,7.50
2018-08-09T04:48:20.426Z,8.20
2018-08-09T04:50:49.215Z,6.20
2018-08-09T04:53:17.972Z,6.80
2018-08-09T04:55:46.754Z,6.07
2018-08-09T04:58:15.517Z,6.03
2018-08-09T05:00:44.265Z,5.73
2018-08-09T05:03:13.026Z,4.70
2018-08-09T05:05:41.740Z,7.60
2018-08-09T05:08:10.451Z,5.00
2018-08-09T05:10:39.224Z,4.80
2018-08-09T05:13:07.950Z,6.47
2018-08-09T05:15:36.723Z,4.73
2018-08-09T05:18:05.561Z,5.43
2018-08-09T05:20:34.260Z,4.23
2018-08-09T05:23:03.005Z,4.30
2018-08-09T05:25:31.755Z,5.00
2018-08-09T05:28:00.523Z,5.43
2018-08-09T05:30:29.247Z,4.23
2018-08-09T05:32:58.016Z,4.77
2018-08-09T05:35:26.730Z,5.00
2018-08-09T05:37:55.461Z,4.67
2018-08-09T05:40:24.239Z,4.33
2018-08-09T05:42:52.956Z,3.80
2018-08-09T05:45:22.134Z,5.07
2018-08-09T05:47:50.968Z,5.10
2018-08-09T05:50:19.689Z,5.37
2018-08-09T05:52:48.532Z,5.57
2018-08-09T05:55:17.254Z,4.73
2018-08-09T05:57:46.017Z,4.93
2018-08-09T06:00:14.898Z,4.57
2018-08-09T06:02:43.657Z,5.53
2018-08-09T06:05:12.385Z,4.90
2018-08-09T06:07:41.096Z,5.00
2018-08-09T06:10:09.861Z,5.87
2018-08-09T06:12:38.597Z,5.20
2018-08-09T06:15:07.353Z,5.33
2018-08-09T06:17:36.094Z,4.60
2018-08-09T06:20:05.605Z,5.20
2018-08-09T06:22:34.358Z,5.07
2018-08-09T06:25:03.057Z,3.77
2018-08-09T06:27:31.813Z,3.87
2018-08-09T06:30:00.533Z,3.87
2018-08-09T06:32:29.252Z,3.20
2018-08-09T06:34:57.993Z,3.60
2018-08-09T06:37:26.715Z,4.58
2018-08-09T06:39:55.418Z,4.03
2018-08-09T06:42:25.056Z,4.20
2018-08-09T06:44:54.320Z,4.35
2018-08-09T06:47:23.152Z,4.62
2018-08-09T06:49:51.997Z,7.83
2018-08-09T06:52:20.701Z,7.25
2018-08-09T06:54:49.450Z,8.80
2018-08-09T06:57:18.160Z,8.73
2018-08-09T06:59:46.888Z,14.70
2018-08-09T07:02:15.608Z,11.73
2018-08-09T07:04:44.674Z,13.50
2018-08-09T07:07:13.425Z,12.00
2018-08-09T07:09:42.192Z,9.75
2018-08-09T07:12:10.897Z,10.75
2018-08-09T07:14:39.635Z,12.78
2018-08-09T07:17:08.375Z,8.83
2018-08-09T07:19:37.209Z,8.68
2018-08-09T07:22:06.192Z,8.70
2018-08-09T07:24:34.933Z,8.20
2018-08-09T07:27:03.645Z,7.08
2018-08-09T07:29:32.346Z,6.08
2018-08-09T07:32:01.085Z,6.35
2018-08-09T07:34:29.812Z,5.60
2018-08-09T07:36:58.521Z,4.75
2018-08-09T07:39:27.313Z,3.20
2018-08-09T07:41:55.982Z,3.30
2018-08-09T07:44:24.740Z,4.42
2018-08-09T07:46:53.444Z,3.42
2018-08-09T07:49:22.387Z,3.20
2018-08-09T07:51:51.296Z,3.72
2018-08-09T07:54:20.078Z,3.30
2018-08-09T07:56:48.953Z,2.40
2018-08-09T07:59:17.705Z,3.15
2018-08-09T08:01:46.421Z,2.42
2018-08-09T08:04:15.147Z,2.70
2018-08-09T08:06:43.865Z,2.37
2018-08-09T08:09:13.165Z,2.67
2018-08-09T08:11:41.868Z,2.50
2018-08-09T08:14:10.582Z,2.37
2018-08-09T08:16:39.305Z,2.72
2018-08-09T08:19:08.033Z,3.02
2018-08-09T08:21:37.635Z,2.72
2018-08-09T08:24:06.430Z,2.72
2018-08-09T08:26:35.151Z,2.77
2018-08-09T08:29:03.874Z,2.92
2018-08-09T08:31:32.576Z,2.33
2018-08-09T08:34:01.390Z,2.95
2018-08-09T08:36:30.117Z,3.08
2018-08-09T08:38:58.816Z,2.55
2018-08-09T08:41:27.622Z,3.50
2018-08-09T08:43:56.382Z,1.57
2018-08-09T08:46:25.197Z,1.92
2018-08-09T08:48:54.281Z,1.50
2018-08-09T08:51:23.010Z,1.72
2018-08-09T08:53:51.758Z,2.75
2018-08-09T08:56:20.489Z,2.10
2018-08-09T08:58:49.335Z,1.70
2018-08-09T09:01:18.344Z,2.08
2018-08-09T09:03:47.109Z,2.40
2018-08-09T09:06:15.861Z,2.62
2018-08-09T09:08:44.754Z,2.80
2018-08-09T09:11:13.490Z,1.80
2018-08-09T09:13:42.235Z,2.40
2018-08-09T09:16:10.951Z,1.60
2018-08-09T09:18:43.275Z,1.92
2018-08-09T09:21:18.288Z,2.52
2018-08-09T09:23:53.899Z,2.25
2018-08-09T09:26:22.923Z,2.67
2018-08-09T09:28:51.634Z,2.37
2018-08-09T09:31:20.385Z,2.08
2018-08-09T09:33:49.125Z,2.62
2018-08-09T09:36:17.940Z,1.75
2018-08-09T09:38:46.832Z,1.92
2018-08-09T09:41:16.962Z,1.70
2018-08-09T09:43:45.942Z,1.90
2018-08-09T09:46:14.681Z,2.37
2018-08-09T09:48:43.401Z,1.40
2018-08-09T09:51:12.120Z,2.52
2018-08-09T09:53:40.966Z,2.90
2018-08-09T09:56:09.697Z,2.45
2018-08-09T09:58:38.459Z,2.02
2018-08-09T10:01:12.321Z,1.90
2018-08-09T10:03:41.098Z,2.10
2018-08-09T10:06:09.832Z,2.72
2018-08-09T10:08:38.574Z,2.85
2018-08-09T10:11:07.346Z,4.00
2018-08-09T10:13:36.111Z,2.00
2018-08-09T10:16:04.880Z,1.80
2018-08-09T10:18:33.634Z,3.22
2018-08-09T10:21:02.423Z,1.85
2018-08-09T10:23:31.187Z,1.50
2018-08-09T10:25:59.942Z,1.77
2018-08-09T10:28:28.689Z,1.55
2018-08-09T10:30:57.698Z,1.37
2018-08-09T10:33:26.434Z,1.52
2018-08-09T10:35:55.170Z,1.27
2018-08-09T10:38:23.942Z,1.35
2018-08-09T10:40:52.670Z,1.50
2018-08-09T10:43:21.395Z,1.80
2018-08-09T10:45:50.135Z,2.08
2018-08-09T10:48:18.881Z,2.15
2018-08-09T10:50:47.632Z,2.05
2018-08-09T10:53:16.456Z,2.47
2018-08-09T10:55:45.363Z,2.33
2018-08-09T10:58:14.205Z,1.30
2018-08-09T11:00:43.282Z,1.57
2018-08-09T11:03:12.044Z,1.50
2018-08-09T11:05:40.818Z,2.50
2018-08-09T11:08:09.646Z,1.90
2018-08-09T11:10:38.449Z,0.93
2018-08-09T11:13:07.200Z,1.40
2018-08-09T11:15:35.932Z,1.98
2018-08-09T11:18:04.713Z,1.67
2018-08-09T11:20:33.448Z,2.10
2018-08-09T11:23:02.265Z,2.95
2018-08-09T11:25:31.007Z,1.10
2018-08-09T11:28:00.008Z,1.10
2018-08-09T11:30:28.809Z,1.57
2018-08-09T11:32:57.555Z,1.67
2018-08-09T11:35:26.371Z,1.80
2018-08-09T11:37:55.075Z,1.57
2018-08-09T11:40:23.791Z,1.62
2018-08-09T11:42:52.560Z,1.62
2018-08-09T11:45:21.260Z,1.62
2018-08-09T11:47:50.017Z,1.40
2018-08-09T11:50:19.013Z,2.10
2018-08-09T11:52:47.726Z,1.70
2018-08-09T11:55:16.729Z,1.60
2018-08-09T11:57:45.470Z,1.92
2018-08-09T12:00:14.735Z,2.00
2018-08-09T12:02:43.440Z,1.60
2018-08-09T12:05:12.202Z,1.45
2018-08-09T12:07:40.902Z,2.37
2018-08-09T12:10:09.690Z,2.58
2018-08-09T12:12:38.526Z,2.22
2018-08-09T12:15:07.411Z,2.52
2018-08-09T12:17:36.146Z,1.30
2018-08-09T12:20:05.357Z,1.98
2018-08-09T12:22:34.069Z,1.50
2018-08-09T12:25:02.900Z,1.40
2018-08-09T12:27:31.647Z,1.17
2018-08-09T12:30:00.375Z,1.62
2018-08-09T12:32:29.198Z,1.57
2018-08-09T12:34:57.946Z,1.92
2018-08-09T12:37:26.835Z,1.67
2018-08-09T12:39:55.544Z,1.75
2018-08-09T12:42:24.279Z,1.50
2018-08-09T12:44:53.006Z,1.80
2018-08-09T12:47:21.724Z,1.57
2018-08-09T12:49:50.641Z,1.62
2018-08-09T12:52:19.355Z,1.70
2018-08-09T12:54:48.094Z,3.22
2018-08-09T12:57:17.092Z,1.10
2018-08-09T12:59:45.814Z,2.30
2018-08-09T13:02:14.537Z,2.00
2018-08-09T13:04:43.377Z,2.93
2018-08-09T13:07:12.123Z,2.27
2018-08-09T13:09:41.029Z,1.97
2018-08-09T13:12:09.816Z,2.30
2018-08-09T13:14:38.560Z,2.10
2018-08-09T13:17:08.433Z,4.13
2018-08-09T13:19:38.324Z,2.80
2018-08-09T13:22:08.067Z,2.37
2018-08-09T13:24:38.642Z,1.87
2018-08-09T13:27:08.235Z,2.80
2018-08-09T13:29:39.817Z,3.67
2018-08-09T13:32:08.914Z,3.23
2018-08-09T13:34:37.744Z,3.43
2018-08-09T13:37:06.598Z,2.40
2018-08-09T13:39:35.712Z,2.40
2018-08-09T13:42:04.580Z,2.10
2018-08-09T13:44:33.298Z,2.33
2018-08-09T13:47:02.049Z,2.97
2018-08-09T13:49:30.800Z,1.73
2018-08-09T13:51:59.551Z,2.50
2018-08-09T13:54:28.352Z,3.43
2018-08-09T13:56:57.087Z,2.40
2018-08-09T13:59:25.829Z,3.13
2018-08-09T14:01:54.578Z,4.10
2018-08-09T14:04:23.445Z,2.67
2018-08-09T14:06:52.233Z,2.70
2018-08-09T14:09:21.722Z,2.20
2018-08-09T14:11:50.588Z,1.60
2018-08-09T14:14:19.397Z,2.00
2018-08-09T14:16:48.110Z,2.47
2018-08-09T14:19:16.842Z,2.23
2018-08-09T14:21:45.726Z,2.60
2018-08-09T14:24:14.541Z,2.37
2018-08-09T14:26:43.490Z,2.63
2018-08-09T14:29:12.275Z,2.07
2018-08-09T14:31:41.021Z,2.00
2018-08-09T14:34:09.812Z,2.67
2018-08-09T14:36:38.585Z,2.80
2018-08-09T14:39:09.553Z,2.37
2018-08-09T14:41:38.380Z,2.33
2018-08-09T14:44:07.582Z,6.13
2018-08-09T14:46:36.318Z,3.30
2018-08-09T14:49:05.200Z,2.53
2018-08-09T14:51:33.967Z,2.73
2018-08-09T14:54:02.698Z,1.80
2018-08-09T14:56:31.408Z,3.23
2018-08-09T14:59:00.268Z,2.97
2018-08-09T15:01:28.981Z,2.57
2018-08-09T15:03:57.718Z,2.57
2018-08-09T15:06:26.421Z,2.50
2018-08-09T15:08:55.187Z,1.80
2018-08-09T15:11:24.152Z,2.30
2018-08-09T15:13:52.866Z,1.87
2018-08-09T15:16:21.593Z,2.17
2018-08-09T15:18:50.302Z,2.60
2018-08-09T15:21:19.058Z,2.40
2018-08-09T15:23:47.888Z,1.73
2018-08-09T15:26:16.731Z,2.80
2018-08-09T15:28:45.522Z,2.40
2018-08-09T15:31:14.309Z,1.50
2018-08-09T15:33:43.057Z,2.17
2018-08-09T15:36:11.911Z,2.37
2018-08-09T15:38:41.090Z,2.47
2018-08-09T15:41:10.119Z,2.37
2018-08-09T15:43:38.956Z,2.43
2018-08-09T15:46:08.232Z,3.37
2018-08-09T15:48:37.498Z,2.20
2018-08-09T15:51:06.226Z,2.40
2018-08-09T15:53:35.102Z,2.40
2018-08-09T15:56:03.849Z,2.80
2018-08-09T15:58:32.607Z,2.53
2018-08-09T16:01:01.370Z,4.03
2018-08-09T16:03:30.102Z,3.40
2018-08-09T16:05:58.836Z,2.37
2018-08-09T16:08:27.542Z,2.57
2018-08-09T16:10:56.275Z,2.33
2018-08-09T16:13:25.035Z,2.83
2018-08-09T16:15:53.821Z,1.83
2018-08-09T16:18:22.563Z,2.57
2018-08-09T16:20:51.395Z,2.60
2018-08-09T16:23:20.194Z,2.97
2018-08-09T16:25:49.010Z,3.50
2018-08-09T16:28:17.751Z,4.43
2018-08-09T16:30:46.473Z,10.30
2018-08-09T16:33:15.186Z,4.37
2018-08-09T16:35:43.947Z,2.90
2018-08-09T16:38:12.748Z,3.40
2018-08-09T16:40:41.489Z,3.90
2018-08-09T16:43:10.216Z,3.80
2018-08-09T16:45:39.036Z,5.50
2018-08-09T16:48:08.010Z,5.07
2018-08-09T16:50:38.502Z,4.20
2018-08-09T16:53:07.288Z,4.10
2018-08-09T16:55:36.029Z,4.37
2018-08-09T16:58:04.782Z,4.30
2018-08-09T17:00:33.611Z,3.73
2018-08-09T17:03:02.760Z,3.70
2018-08-09T17:05:31.505Z,3.33
2018-08-09T17:08:00.296Z,4.40
2018-08-09T17:10:31.382Z,3.90
2018-08-09T17:13:00.249Z,3.60
2018-08-09T17:15:29.917Z,4.00
2018-08-09T17:17:59.507Z,5.10
2018-08-09T17:20:30.357Z,15.77
2018-08-09T17:22:59.513Z,7.33
2018-08-09T17:25:28.877Z,6.47
2018-08-09T17:27:57.718Z,4.70
2018-08-09T17:30:27.608Z,5.43
2018-08-09T17:32:57.366Z,6.53
2018-08-09T17:35:26.164Z,3.67
2018-08-09T17:37:55.144Z,4.10
2018-08-09T17:40:27.096Z,3.63
2018-08-09T17:42:56.925Z,3.27
2018-08-09T17:45:27.237Z,4.13
2018-08-09T17:47:56.037Z,3.60
2018-08-09T17:50:24.810Z,4.50
2018-08-09T17:52:53.953Z,5.33
2018-08-09T17:55:22.749Z,4.03
2018-08-09T17:57:51.520Z,4.60
2018-08-09T18:00:27.791Z,4.40
2018-08-09T18:02:56.627Z,4.20
2018-08-09T18:05:25.549Z,4.40
2018-08-09T18:07:55.094Z,6.67
2018-08-09T18:10:28.267Z,5.00
2018-08-09T18:12:57.045Z,4.00
2018-08-09T18:15:27.185Z,4.80
2018-08-09T18:17:56.435Z,4.63
2018-08-09T18:20:27.344Z,3.57
2018-08-09T18:22:56.968Z,4.07
2018-08-09T18:25:25.789Z,4.53
2018-08-09T18:27:54.537Z,3.23
2018-08-09T18:30:23.346Z,3.40
2018-08-09T18:32:52.211Z,4.57
2018-08-09T18:35:21.137Z,5.40
2018-08-09T18:37:49.931Z,5.33
2018-08-09T18:40:20.725Z,4.57
2018-08-09T18:42:49.495Z,4.53
2018-08-09T18:45:18.242Z,4.00
2018-08-09T18:47:47.069Z,4.40
2018-08-09T18:50:20.008Z,4.77
2018-08-09T18:52:48.864Z,5.10
2018-08-09T18:55:18.656Z,3.93
2018-08-09T18:57:47.409Z,5.50
2018-08-09T19:00:19.482Z,4.70
2018-08-09T19:02:48.782Z,3.63
2018-08-09T19:05:17.860Z,6.47
2018-08-09T19:07:46.704Z,5.50
2018-08-09T19:10:28.192Z,4.70
2018-08-09T19:12:56.964Z,5.70
2018-08-09T19:15:25.775Z,6.87
2018-08-09T19:17:54.732Z,6.40
2018-08-09T19:20:25.580Z,6.50
2018-08-09T19:22:54.624Z,6.30
2018-08-09T19:25:23.382Z,6.10
2018-08-09T19:27:52.209Z,7.00
2018-08-09T19:30:23.774Z,6.60
2018-08-09T19:32:52.585Z,7.60
2018-08-09T19:35:22.015Z,6.00
2018-08-09T19:37:50.847Z,6.10
2018-08-09T19:40:24.006Z,5.03
2018-08-09T19:42:52.839Z,6.57
2018-08-09T19:45:21.712Z,5.10
2018-08-09T19:47:50.620Z,4.80
2018-08-09T19:50:20.771Z,4.83
2018-08-09T19:52:49.572Z,4.40
2018-08-09T19:55:19.726Z,5.00
2018-08-09T19:57:49.392Z,4.03
2018-08-09T20:00:20.356Z,4.93
2018-08-09T20:02:49.724Z,5.23
2018-08-09T20:05:18.685Z,5.80
2018-08-09T20:07:47.540Z,4.37
2018-08-09T20:10:16.650Z,5.23
2018-08-09T20:12:46.478Z,5.63
2018-08-09T20:15:17.215Z,6.63
2018-08-09T20:17:46.052Z,5.17
2018-08-09T20:20:16.210Z,4.93
2018-08-09T20:22:45.160Z,5.17
2018-08-09T20:25:14.481Z,4.93
2018-08-09T20:27:43.818Z,4.67
2018-08-09T20:30:12.291Z,4.70
2018-08-09T20:32:41.394Z,4.53
2018-08-09T20:35:12.347Z,5.13
2018-08-09T20:37:41.525Z,4.30
2018-08-09T20:40:11.259Z,4.40
2018-08-09T20:42:40.441Z,3.93
2018-08-09T20:45:11.117Z,5.70
2018-08-09T20:47:39.917Z,4.07
2018-08-09T20:50:13.197Z,4.63
2018-08-09T20:52:42.725Z,4.20
2018-08-09T20:55:12.675Z,4.53
2018-08-09T20:57:42.531Z,5.00
2018-08-09T21:00:14.057Z,4.00
2018-08-09T21:02:43.223Z,4.40
2018-08-09T21:05:21.597Z,5.63
2018-08-09T21:07:51.108Z,4.33
2018-08-09T21:10:19.849Z,4.83
2018-08-09T21:12:48.632Z,4.60
2018-08-09T21:15:18.367Z,6.20
2018-08-09T21:17:47.160Z,6.37
2018-08-09T21:20:16.283Z,4.80
2018-08-09T21:22:46.402Z,4.80
2018-08-09T21:25:15.114Z,5.00
2018-08-09T21:27:44.222Z,4.67
2018-08-09T21:30:15.463Z,4.90
2018-08-09T21:32:44.663Z,4.93
2018-08-09T21:35:13.383Z,4.70
2018-08-09T21:37:42.838Z,4.80
2018-08-09T21:40:12.456Z,5.30
2018-08-09T21:42:41.250Z,5.40
2018-08-09T21:45:12.577Z,4.80
2018-08-09T21:47:41.308Z,5.37
2018-08-09T21:50:13.173Z,5.50
2018-08-09T21:52:42.358Z,5.80
2018-08-09T21:55:12.060Z,5.77
2018-08-09T21:57:41.046Z,5.73
2018-08-09T22:00:50.233Z,6.23
2018-08-09T22:03:21.322Z,4.97
2018-08-09T22:05:55.186Z,6.70
2018-08-09T22:08:29.041Z,5.33
2018-08-09T22:11:03.166Z,4.90
2018-08-09T22:13:37.112Z,4.50
2018-08-09T22:16:11.441Z,4.57
2018-08-09T22:18:45.469Z,6.17
2018-08-09T22:21:19.314Z,5.33
2018-08-09T22:23:48.505Z,4.93
2018-08-09T22:26:17.209Z,5.30
2018-08-09T22:28:46.126Z,5.40
2018-08-09T22:31:15.477Z,4.87
2018-08-09T22:33:44.294Z,4.43
2018-08-09T22:36:13.043Z,5.00
2018-08-09T22:38:41.749Z,5.93
2018-08-09T22:41:10.510Z,6.67
2018-08-09T22:43:39.245Z,5.10
2018-08-09T22:46:07.974Z,5.03
2018-08-09T22:48:36.709Z,5.10
2018-08-09T22:51:05.667Z,5.23
2018-08-09T22:53:34.451Z,7.17
2018-08-09T22:56:03.181Z,5.87
2018-08-09T22:58:31.901Z,5.60
2018-08-09T23:01:00.647Z,4.40
2018-08-09T23:03:29.353Z,5.00
2018-08-09T23:05:58.119Z,5.20
2018-08-09T23:08:26.809Z,4.93
2018-08-09T23:10:55.522Z,5.80
2018-08-09T23:13:24.264Z,4.63
2018-08-09T23:15:52.977Z,5.80
2018-08-09T23:18:21.874Z,6.10
2018-08-09T23:20:50.579Z,5.10
2018-08-09T23:23:19.269Z,4.30
2018-08-09T23:25:48.094Z,4.73
2018-08-09T23:28:16.870Z,4.23
2018-08-09T23:30:45.553Z,4.97
2018-08-09T23:33:14.239Z,5.60
2018-08-09T23:35:42.933Z,7.10
2018-08-09T23:38:11.677Z,5.03
2018-08-09T23:40:40.395Z,6.13
2018-08-09T23:43:09.077Z,6.13
2018-08-09T23:45:37.772Z,6.87
2018-08-09T23:48:06.678Z,5.67
2018-08-09T23:50:35.437Z,5.10
2018-08-09T23:53:04.277Z,6.20
2018-08-09T23:55:32.969Z,5.83
2018-08-09T23:58:01.676Z,5.20
